Time;durP1;ratioP1;P1;durP2;ratioP2;P2;SDS_P1;SDS_P2;PMS_P1;PMS_P2;Temp;Humidity;BMP_temperature;BMP_pressure;BME280_temperature;BME280_humidity;BME280_pressure;Samples;Min_cycle;Max_cycle;Signal;HPM_P1;HPM_P2
2022/07/09 00:00:06;;;;;;;95.38;28.00;;;15.30;99.90;;;;;;5051816;28;20159;-67
2022/07/09 00:02:31;;;;;;;96.88;28.02;;;15.40;99.90;;;;;;5051764;28;20048;-67
2022/07/09 00:04:57;;;;;;;95.53;27.55;;;15.40;99.90;;;;;;5051750;28;20041;-68
2022/07/09 00:11:03;;;;;;;91.45;28.15;;;15.40;99.90;;;;;;5052941;28;20056;-67
2022/07/09 00:13:29;;;;;;;102.30;27.77;;;15.10;99.90;;;;;;5052033;28;20048;-68
2022/07/09 00:15:54;;;;;;;100.05;28.75;;;15.30;99.90;;;;;;5051686;28;20033;-69
2022/07/09 00:18:20;;;;;;;102.07;27.13;;;15.30;99.90;;;;;;5051735;28;20456;-67
2022/07/09 00:20:45;;;;;;;123.82;26.33;;;15.10;99.90;;;;;;5051996;28;20139;-67
2022/07/09 00:23:11;;;;;;;84.93;24.98;;;15.00;99.90;;;;;;5051857;28;20079;-68
2022/07/09 00:25:37;;;;;;;102.82;26.25;;;15.00;99.90;;;;;;5052009;28;20045;-67
2022/07/09 00:28:02;;;;;;;110.75;26.05;;;15.10;99.90;;;;;;5051565;28;20052;-67
2022/07/09 00:30:28;;;;;;;93.55;25.63;;;15.00;99.90;;;;;;5051582;28;20491;-68
2022/07/09 00:32:54;;;;;;;105.13;26.05;;;14.90;99.90;;;;;;5051591;28;20062;-68
2022/07/09 00:35:19;;;;;;;89.80;24.58;;;14.80;99.90;;;;;;5051551;28;20048;-69
2022/07/09 00:37:45;;;;;;;95.25;24.88;;;14.80;99.90;;;;;;5054952;28;20029;-70
2022/07/09 00:40:11;;;;;;;106.45;26.30;;;15.00;99.90;;;;;;5055266;28;20135;-70
2022/07/09 00:42:36;;;;;;;103.70;26.90;;;15.00;99.90;;;;;;5055230;28;20040;-69
2022/07/09 00:45:02;;;;;;;85.30;25.23;;;14.90;99.90;;;;;;5038524;28;20102;-69
2022/07/09 00:47:28;;;;;;;100.55;25.40;;;14.90;99.90;;;;;;5055196;28;20037;-69
2022/07/09 00:49:54;;;;;;;103.22;25.60;;;14.90;99.90;;;;;;5055029;28;20443;-70
2022/07/09 00:52:20;;;;;;;163.27;25.17;;;15.00;99.90;;;;;;5055111;28;20037;-69
2022/07/09 00:54:46;;;;;;;76.55;22.55;;;14.90;99.90;;;;;;5054913;28;20040;-69
2022/07/09 00:57:12;;;;;;;116.30;24.63;;;14.80;99.90;;;;;;5071905;28;20438;-71
2022/07/09 00:59:39;;;;;;;317.33;27.15;;;15.00;99.90;;;;;;5056894;28;20045;-69
2022/07/09 01:02:07;;;;;;;67.85;20.75;;;14.90;99.90;;;;;;5074713;28;20044;-70
2022/07/09 01:04:33;;;;;;;230.07;26.25;;;14.80;99.90;;;;;;5074836;28;20135;-71
2022/07/09 01:06:59;;;;;;;101.72;22.15;;;14.70;99.90;;;;;;5074695;28;20128;-70
2022/07/09 01:09:29;;;;;;;279.50;27.08;;;14.70;99.90;;;;;;5074903;28;20041;-71
2022/07/09 01:11:56;;;;;;;475.33;30.88;;;14.70;99.90;;;;;;5066951;28;20060;-71
2022/07/09 01:14:22;;;;;;;492.83;31.63;;;14.70;99.90;;;;;;5058048;28;20036;-70
2022/07/09 01:16:56;;;;;;;373.13;30.00;;;14.70;99.90;;;;;;5074613;28;20043;-71
2022/07/09 01:19:21;;;;;;;663.60;42.92;;;14.70;99.90;;;;;;5074622;28;20508;-71
2022/07/09 01:21:47;;;;;;;635.97;39.90;;;14.70;99.90;;;;;;5074546;28;20128;-71
2022/07/09 01:24:13;;;;;;;469.35;35.85;;;14.80;99.90;;;;;;5058011;28;20410;-70
2022/07/09 01:26:39;;;;;;;488.52;34.60;;;14.70;99.90;;;;;;5057799;28;20052;-69
2022/07/09 01:29:04;;;;;;;692.65;44.00;;;14.70;99.90;;;;;;5068859;28;20044;-69
2022/07/09 01:31:30;;;;;;;506.95;37.00;;;14.80;99.90;;;;;;5071528;28;20038;-70
2022/07/09 01:33:55;;;;;;;511.02;36.92;;;14.70;99.90;;;;;;5058538;28;20040;-70
2022/07/09 01:36:21;;;;;;;471.73;34.10;;;14.80;99.90;;;;;;5072094;28;20028;-69
2022/07/09 01:38:47;;;;;;;352.88;30.55;;;14.80;99.90;;;;;;5065049;28;20036;-69
2022/07/09 01:41:12;;;;;;;311.95;30.77;;;14.60;99.90;;;;;;5053976;28;20045;-70
2022/07/09 01:43:38;;;;;;;418.83;34.75;;;14.60;99.90;;;;;;5059857;28;20033;-70
2022/07/09 01:46:03;;;;;;;220.07;27.83;;;14.80;99.90;;;;;;5074081;28;20380;-70
2022/07/09 01:48:29;;;;;;;219.43;29.00;;;14.60;99.90;;;;;;5074019;28;20403;-71
2022/07/09 01:50:55;;;;;;;138.88;25.92;;;14.70;99.90;;;;;;5073773;28;20032;-70
2022/07/09 01:53:21;;;;;;;131.27;26.25;;;14.70;99.90;;;;;;5073909;28;20372;-70
2022/07/09 01:55:46;;;;;;;124.07;25.08;;;14.70;99.90;;;;;;5073954;28;20036;-71
2022/07/09 01:58:13;;;;;;;117.18;25.95;;;14.60;99.90;;;;;;5071445;28;20402;-70
2022/07/09 02:00:39;;;;;;;102.05;25.77;;;14.90;99.90;;;;;;5073865;28;20453;-71
2022/07/09 02:03:05;;;;;;;87.70;23.80;;;14.70;99.90;;;;;;5069962;28;20036;-69
2022/07/09 02:05:30;;;;;;;94.30;23.85;;;14.80;99.90;;;;;;5063588;28;20048;-70
2022/07/09 02:07:56;;;;;;;97.93;25.33;;;14.90;99.90;;;;;;5045873;28;20091;-71
2022/07/09 02:10:21;;;;;;;104.47;25.08;;;14.90;99.90;;;;;;5061471;28;20036;-71
2022/07/09 02:12:47;;;;;;;88.45;23.55;;;14.90;99.90;;;;;;5061228;28;20040;-71
2022/07/09 02:15:13;;;;;;;94.57;24.25;;;14.70;99.90;;;;;;5045483;28;20040;-70
2022/07/09 02:17:38;;;;;;;89.32;24.73;;;15.00;99.90;;;;;;5063253;28;20668;-70
2022/07/09 02:20:05;;;;;;;105.97;26.05;;;14.70;99.90;;;;;;5077377;28;20037;-70
2022/07/09 02:22:31;;;;;;;95.90;24.67;;;14.80;99.90;;;;;;5061194;28;20048;-70
2022/07/09 02:24:57;;;;;;;104.22;26.45;;;15.00;99.90;;;;;;5058470;28;20395;-70
2022/07/09 02:27:22;;;;;;;93.28;25.65;;;15.00;99.90;;;;;;5057032;28;20032;-69
2022/07/09 02:29:48;;;;;;;83.18;25.20;;;15.10;99.90;;;;;;5057725;28;20459;-71
2022/07/09 02:32:14;;;;;;;100.65;25.02;;;14.80;99.90;;;;;;5054540;28;20119;-70
2022/07/09 02:34:39;;;;;;;90.90;23.35;;;15.10;99.90;;;;;;5064037;28;20116;-68
2022/07/09 02:37:06;;;;;;;94.22;24.67;;;15.00;99.90;;;;;;5060437;28;20460;-69
2022/07/09 02:39:32;;;;;;;89.28;24.30;;;15.10;99.90;;;;;;5040293;28;20048;-69
2022/07/09 02:41:57;;;;;;;89.20;23.23;;;14.90;99.90;;;;;;5059854;28;20051;-69
2022/07/09 02:44:23;;;;;;;84.95;24.02;;;15.00;99.90;;;;;;5061967;28;20032;-68
2022/07/09 02:46:49;;;;;;;87.78;24.13;;;15.10;99.90;;;;;;5044153;28;20036;-70
2022/07/09 02:49:15;;;;;;;95.65;24.50;;;14.90;99.90;;;;;;5057324;28;20074;-69
2022/07/09 02:51:41;;;;;;;96.80;23.27;;;15.00;99.90;;;;;;5058703;28;20498;-68
2022/07/09 02:54:06;;;;;;;89.45;23.60;;;15.20;99.90;;;;;;5056673;28;20048;-69
2022/07/09 02:56:32;;;;;;;86.72;23.05;;;14.90;99.90;;;;;;5053001;28;20029;-70
2022/07/09 02:58:58;;;;;;;81.45;22.45;;;15.20;99.90;;;;;;5064239;28;20514;-68
2022/07/09 03:01:24;;;;;;;85.50;23.00;;;15.20;99.90;;;;;;5064105;28;20442;-69
2022/07/09 03:03:50;;;;;;;78.65;21.70;;;14.90;99.90;;;;;;5062184;28;20109;-67
2022/07/09 03:06:16;;;;;;;87.78;22.92;;;15.00;99.90;;;;;;5068816;28;20032;-69
2022/07/09 03:08:45;;;;;;;82.63;22.05;;;15.00;99.90;;;;;;5060523;28;20040;-68
2022/07/09 03:11:11;;;;;;;77.65;21.63;;;15.20;99.90;;;;;;5069829;28;20050;-68
2022/07/09 03:13:37;;;;;;;86.22;21.35;;;15.30;99.90;;;;;;5057994;28;20112;-67
2022/07/09 03:16:04;;;;;;;64.03;19.23;;;15.20;99.90;;;;;;5059052;28;20052;-70
2022/07/09 03:18:29;;;;;;;79.53;19.77;;;15.10;99.90;;;;;;5074624;28;20533;-69
2022/07/09 03:20:55;;;;;;;90.22;21.08;;;15.00;99.90;;;;;;5063535;28;20041;-70
2022/07/09 03:23:21;;;;;;;77.82;20.50;;;15.00;99.90;;;;;;5057209;28;20060;-71
2022/07/09 03:25:47;;;;;;;67.22;19.33;;;15.20;99.90;;;;;;5069355;28;20071;-70
2022/07/09 03:28:12;;;;;;;78.47;21.40;;;15.20;99.90;;;;;;5062380;28;20071;-71
2022/07/09 03:30:38;;;;;;;75.72;20.25;;;15.20;99.90;;;;;;5059843;28;20039;-71
2022/07/09 03:33:04;;;;;;;69.07;20.15;;;15.00;99.90;;;;;;5052535;28;20052;-70
2022/07/09 03:35:29;;;;;;;82.40;20.05;;;15.20;99.90;;;;;;5052178;28;20037;-70
2022/07/09 03:37:55;;;;;;;73.55;19.85;;;15.30;99.90;;;;;;5052381;28;20033;-69
2022/07/09 03:40:20;;;;;;;78.35;20.42;;;15.30;99.90;;;;;;5035477;28;20052;-69
2022/07/09 03:42:46;;;;;;;80.63;19.45;;;15.30;99.90;;;;;;5068760;28;20052;-68
2022/07/09 03:45:12;;;;;;;70.55;19.73;;;15.20;99.90;;;;;;5064531;28;20057;-70
2022/07/09 03:47:37;;;;;;;83.85;19.80;;;15.30;99.90;;;;;;5072006;28;20033;-70
2022/07/09 03:50:04;;;;;;;86.93;20.85;;;15.00;99.90;;;;;;5071801;28;20090;-70
2022/07/09 03:52:29;;;;;;;71.95;20.00;;;15.20;99.90;;;;;;5072060;28;20119;-69
2022/07/09 03:54:55;;;;;;;69.88;19.95;;;15.20;99.90;;;;;;5071965;28;20119;-69
2022/07/09 04:01:01;;;;;;;75.72;19.65;;;15.10;99.90;;;;;;5073175;28;20078;-68
2022/07/09 04:03:27;;;;;;;74.15;18.95;;;15.30;99.90;;;;;;5071835;28;20487;-68
2022/07/09 04:05:53;;;;;;;84.43;19.80;;;15.40;99.90;;;;;;5072072;28;20072;-69
2022/07/09 04:08:18;;;;;;;73.65;19.33;;;15.10;99.90;;;;;;5068069;28;20045;-68
2022/07/09 04:10:44;;;;;;;75.00;19.67;;;15.20;99.90;;;;;;5064635;28;20388;-68
2022/07/09 04:13:09;;;;;;;78.03;20.45;;;15.30;99.90;;;;;;5065411;28;20036;-67
2022/07/09 04:15:35;;;;;;;76.43;19.10;;;15.30;99.90;;;;;;5056018;28;20549;-68
2022/07/09 04:18:01;;;;;;;69.47;19.38;;;15.40;99.90;;;;;;5058626;28;20044;-68
2022/07/09 04:20:26;;;;;;;69.40;20.23;;;15.40;99.90;;;;;;5055505;28;20511;-68
2022/07/09 04:22:52;;;;;;;81.68;19.65;;;15.20;99.90;;;;;;5071135;28;20048;-68
2022/07/09 04:25:18;;;;;;;71.35;20.55;;;15.40;99.90;;;;;;5075600;28;20066;-68
2022/07/09 04:27:43;;;;;;;85.63;21.13;;;15.30;99.90;;;;;;5075778;28;20556;-68
2022/07/09 04:30:10;;;;;;;75.60;20.02;;;15.30;99.90;;;;;;5067452;28;20037;-68
2022/07/09 04:32:36;;;;;;;72.43;20.05;;;15.40;99.90;;;;;;5074192;28;20135;-66
2022/07/09 04:35:01;;;;;;;70.68;19.50;;;15.60;99.90;;;;;;5060627;28;20119;-68
2022/07/09 04:37:27;;;;;;;70.22;19.13;;;15.40;99.90;;;;;;5060958;28;20115;-67
2022/07/09 04:39:52;;;;;;;73.80;19.00;;;15.40;99.90;;;;;;5061148;28;20506;-67
2022/07/09 04:42:20;;;;;;;64.50;19.30;;;15.60;99.90;;;;;;5054965;28;20045;-67
2022/07/09 04:44:45;;;;;;;65.13;18.52;;;15.50;99.90;;;;;;5057809;28;20048;-67
2022/07/09 04:47:11;;;;;;;61.53;18.25;;;15.70;99.90;;;;;;5057834;28;20075;-69
2022/07/09 04:49:36;;;;;;;65.18;18.73;;;15.60;99.90;;;;;;5054907;28;20123;-67
2022/07/09 04:52:02;;;;;;;64.65;17.52;;;15.70;99.90;;;;;;5070549;28;20037;-68
2022/07/09 04:54:28;;;;;;;62.90;17.98;;;15.60;99.90;;;;;;5074872;28;20071;-67
2022/07/09 04:56:53;;;;;;;66.85;17.58;;;15.70;99.90;;;;;;5074950;28;20449;-68
2022/07/09 04:59:19;;;;;;;69.65;17.33;;;15.80;99.90;;;;;;5073008;28;20059;-67
2022/07/09 05:01:46;;;;;;;62.95;16.20;;;15.80;99.90;;;;;;5054838;28;20048;-67
2022/07/09 05:04:11;;;;;;;63.67;16.33;;;16.00;99.90;;;;;;5055511;28;20029;-67
2022/07/09 05:10:19;;;;;;;62.20;16.10;;;15.90;99.90;;;;;;5076002;28;20097;-68
2022/07/09 05:12:45;;;;;;;55.10;16.02;;;16.20;99.90;;;;;;5058387;28;20036;-67
2022/07/09 05:15:11;;;;;;;50.70;15.10;;;16.30;99.90;;;;;;5074644;28;20059;-68
2022/07/09 05:17:37;;;;;;;51.88;15.23;;;16.10;99.90;;;;;;5074628;28;20036;-68
2022/07/09 05:20:04;;;;;;;53.88;15.45;;;16.40;99.90;;;;;;5074264;28;20044;-67
2022/07/09 05:22:34;;;;;;;57.85;14.77;;;16.40;99.90;;;;;;5074483;28;20052;-66
2022/07/09 05:25:00;;;;;;;50.13;14.27;;;16.20;99.90;;;;;;5060382;28;20070;-68
2022/07/09 05:27:26;;;;;;;52.80;14.30;;;16.40;99.90;;;;;;5064629;28;20128;-66
2022/07/09 05:30:13;;;;;;;49.28;16.02;;;16.40;99.90;;;;;;5090021;28;20131;-66
2022/07/09 05:32:39;;;;;;;49.67;15.07;;;16.40;99.90;;;;;;5071916;28;20041;-66
2022/07/09 05:35:06;;;;;;;48.63;13.80;;;16.50;99.90;;;;;;5074163;28;20052;-67
2022/07/09 05:37:31;;;;;;;44.70;14.18;;;16.30;99.90;;;;;;5071885;28;20066;-67
2022/07/09 05:39:57;;;;;;;54.63;16.20;;;16.50;99.90;;;;;;5070021;28;20497;-67
2022/07/09 05:42:23;;;;;;;50.75;14.60;;;16.50;99.90;;;;;;5054206;28;20094;-66
2022/07/09 05:44:49;;;;;;;43.42;13.88;;;16.50;99.90;;;;;;5072973;28;20040;-68
2022/07/09 05:47:15;;;;;;;48.42;14.18;;;16.70;99.90;;;;;;5069534;28;20582;-66
2022/07/09 05:49:41;;;;;;;39.67;13.60;;;16.60;99.90;;;;;;5067491;28;20041;-68
2022/07/09 05:52:07;;;;;;;42.70;14.13;;;16.90;99.90;;;;;;5072955;28;20047;-68
2022/07/09 05:58:14;;;;;;;43.22;12.30;;;16.90;99.90;;;;;;5062494;28;20436;-67
2022/07/09 06:00:40;;;;;;;36.65;12.70;;;17.10;99.90;;;;;;5073871;28;20131;-66
2022/07/09 06:03:06;;;;;;;50.90;12.88;;;17.20;99.90;;;;;;5057112;28;20505;-67
2022/07/09 06:05:31;;;;;;;37.28;12.00;;;17.10;99.90;;;;;;5047909;28;20041;-66
2022/07/09 06:07:57;;;;;;;42.42;12.52;;;17.20;99.90;;;;;;5066209;28;20047;-66
2022/07/09 06:10:22;;;;;;;35.28;11.85;;;17.10;99.90;;;;;;5063229;28;20492;-66
2022/07/09 06:12:48;;;;;;;34.55;11.27;;;17.20;99.90;;;;;;5067628;28;20032;-67
2022/07/09 06:15:14;;;;;;;32.47;11.18;;;17.30;99.90;;;;;;5073639;28;20041;-67
2022/07/09 06:17:39;;;;;;;42.67;11.70;;;17.30;99.90;;;;;;5073498;28;20044;-66
2022/07/09 06:20:11;;;;;;;30.90;10.70;;;17.30;99.90;;;;;;5072759;28;20051;-66
2022/07/09 06:22:38;;;;;;;28.58;10.50;;;17.30;99.90;;;;;;5071663;28;20037;-67
2022/07/09 06:25:05;;;;;;;31.58;9.90;;;17.20;99.90;;;;;;5070283;28;20055;-66
2022/07/09 06:27:30;;;;;;;35.08;11.35;;;17.40;99.90;;;;;;5058244;28;20075;-69
2022/07/09 06:29:56;;;;;;;36.42;11.25;;;17.30;99.90;;;;;;5057499;28;20079;-69
2022/07/09 06:32:21;;;;;;;32.60;11.07;;;17.40;99.90;;;;;;5044351;28;20036;-68
2022/07/09 06:34:47;;;;;;;39.10;11.73;;;17.40;99.90;;;;;;5066358;28;20115;-68
2022/07/09 06:37:13;;;;;;;28.23;10.45;;;17.40;99.90;;;;;;5069171;28;20032;-67
2022/07/09 06:39:44;;;;;;;31.58;11.02;;;17.40;99.90;;;;;;5051305;28;20395;-68
2022/07/09 06:42:11;;;;;;;31.27;11.13;;;17.40;99.90;;;;;;5060210;28;20040;-67
2022/07/09 06:44:37;;;;;;;28.13;10.55;;;17.30;99.90;;;;;;5058337;28;20068;-66
2022/07/09 06:47:04;;;;;;;31.80;10.88;;;17.30;99.90;;;;;;5054938;28;20449;-68
2022/07/09 06:49:29;;;;;;;31.15;10.98;;;17.50;99.90;;;;;;5040067;28;20146;-68
2022/07/09 06:51:55;;;;;;;34.10;10.30;;;17.50;99.90;;;;;;5057324;28;20141;-69
2022/07/09 06:54:21;;;;;;;33.13;10.38;;;17.60;99.90;;;;;;5066777;28;20043;-67
2022/07/09 06:56:46;;;;;;;33.58;11.13;;;17.50;99.90;;;;;;5066573;28;20028;-69
2022/07/09 06:59:12;;;;;;;33.72;10.35;;;17.60;99.90;;;;;;5070117;28;20068;-67
2022/07/09 07:01:39;;;;;;;30.20;10.50;;;17.60;99.90;;;;;;5058635;28;20037;-67
2022/07/09 07:04:05;;;;;;;30.35;10.27;;;17.70;99.90;;;;;;5065311;28;20043;-69
2022/07/09 07:06:30;;;;;;;29.90;11.32;;;17.80;99.90;;;;;;5059638;28;20032;-69
2022/07/09 07:08:56;;;;;;;30.67;10.48;;;17.90;99.90;;;;;;5062139;28;20036;-68
2022/07/09 07:11:22;;;;;;;27.48;9.77;;;17.90;99.90;;;;;;5064477;28;20028;-68
2022/07/09 07:13:47;;;;;;;30.77;10.52;;;18.00;99.90;;;;;;5067309;28;20038;-69
2022/07/09 07:16:13;;;;;;;24.48;10.13;;;17.90;99.90;;;;;;5064036;28;20091;-67
2022/07/09 07:18:38;;;;;;;27.10;10.13;;;18.00;99.90;;;;;;5072112;28;20483;-67
2022/07/09 07:21:04;;;;;;;33.13;10.23;;;18.10;99.90;;;;;;5071309;28;20045;-67
2022/07/09 07:23:32;;;;;;;29.08;10.77;;;18.20;99.90;;;;;;5072284;28;20082;-69
2022/07/09 07:25:59;;;;;;;29.70;10.05;;;18.30;99.90;;;;;;5072169;28;20040;-69
2022/07/09 07:28:25;;;;;;;27.60;9.30;;;18.30;99.90;;;;;;5060091;28;20486;-69
2022/07/09 07:30:50;;;;;;;29.48;9.65;;;18.30;99.90;;;;;;5070776;28;20043;-68
2022/07/09 07:33:16;;;;;;;25.98;9.60;;;18.40;99.90;;;;;;5070898;28;20486;-68
2022/07/09 07:35:43;;;;;;;27.58;10.50;;;18.30;99.90;;;;;;5075067;28;20051;-67
2022/07/09 07:38:08;;;;;;;23.20;9.52;;;18.30;99.90;;;;;;5070578;28;20040;-70
2022/07/09 07:40:34;;;;;;;50.40;12.95;;;18.30;99.90;;;;;;5070199;28;20043;-69
2022/07/09 07:42:59;;;;;;;24.92;9.27;;;18.40;99.90;;;;;;5070646;28;20095;-70
2022/07/09 07:45:25;;;;;;;26.70;10.35;;;18.40;99.90;;;;;;5068308;28;20635;-73
2022/07/09 07:47:52;;;;;;;26.38;10.40;;;18.40;99.90;;;;;;5051319;28;20095;-70
2022/07/09 07:50:27;;;;;;;25.70;9.30;;;18.40;99.90;;;;;;5071212;28;20045;-70
2022/07/09 07:52:53;;;;;;;24.00;9.57;;;18.20;99.90;;;;;;5052292;28;20103;-68
2022/07/09 07:55:18;;;;;;;25.90;9.43;;;18.20;99.90;;;;;;5071174;28;20414;-67
2022/07/09 07:57:44;;;;;;;23.38;9.25;;;18.30;99.90;;;;;;5062681;28;20064;-67
2022/07/09 08:00:10;;;;;;;31.30;9.70;;;18.30;99.90;;;;;;5051526;28;20037;-66
2022/07/09 08:02:36;;;;;;;22.33;8.38;;;18.30;99.90;;;;;;5062718;28;20041;-69
2022/07/09 08:05:01;;;;;;;29.95;8.88;;;18.40;99.90;;;;;;5071536;28;20090;-70
2022/07/09 08:07:27;;;;;;;22.98;8.43;;;18.40;99.90;;;;;;5068497;28;20156;-68
2022/07/09 08:09:53;;;;;;;25.60;9.60;;;18.40;99.90;;;;;;5051714;28;20143;-67
2022/07/09 08:12:18;;;;;;;21.83;7.82;;;18.50;99.90;;;;;;5056687;28;20082;-70
2022/07/09 08:14:44;;;;;;;18.83;7.60;;;18.50;99.90;;;;;;5070065;28;20032;-74
2022/07/09 08:17:09;;;;;;;20.13;7.72;;;18.60;99.90;;;;;;5055512;28;20041;-68
2022/07/09 08:19:35;;;;;;;17.13;7.70;;;18.60;99.90;;;;;;5050082;28;20041;-74
2022/07/09 08:22:01;;;;;;;15.20;6.32;;;18.60;99.90;;;;;;5051338;28;20485;-72
2022/07/09 08:24:27;;;;;;;13.70;6.28;;;18.70;99.90;;;;;;5049939;28;20033;-71
2022/07/09 08:26:53;;;;;;;15.30;6.20;;;18.60;99.90;;;;;;5049377;28;20037;-69
2022/07/09 08:29:18;;;;;;;23.42;6.15;;;18.60;99.90;;;;;;5058225;28;20036;-68
2022/07/09 08:31:44;;;;;;;18.88;6.07;;;18.60;99.90;;;;;;5062180;28;20032;-73
2022/07/09 08:34:10;;;;;;;14.68;6.07;;;18.70;99.90;;;;;;5055693;28;20029;-70
2022/07/09 08:36:35;;;;;;;18.17;5.90;;;18.70;99.90;;;;;;5063752;28;20133;-68
2022/07/09 08:39:01;;;;;;;16.98;6.60;;;18.70;99.90;;;;;;5067313;28;20460;-73
2022/07/09 08:41:29;;;;;;;16.15;6.28;;;18.80;99.90;;;;;;5058346;28;20032;-71
2022/07/09 08:43:54;;;;;;;16.92;5.85;;;18.80;99.90;;;;;;5066254;28;20115;-67
2022/07/09 08:46:21;;;;;;;16.48;6.03;;;18.90;99.90;;;;;;5049270;28;20506;-73
2022/07/09 08:48:47;;;;;;;12.38;4.88;;;19.00;99.90;;;;;;5067821;28;20055;-71
2022/07/09 08:51:15;;;;;;;14.75;5.50;;;19.00;99.90;;;;;;5046032;28;20047;-77
2022/07/09 08:53:43;;;;;;;10.90;5.60;;;19.10;99.90;;;;;;5048823;28;20041;-72
2022/07/09 08:56:10;;;;;;;15.77;6.03;;;19.10;99.90;;;;;;5051151;28;20119;-71
2022/07/09 08:58:37;;;;;;;13.43;5.40;;;19.30;99.90;;;;;;5067713;28;20114;-69
2022/07/09 09:01:04;;;;;;;12.45;5.43;;;19.30;99.90;;;;;;5071984;28;20102;-70
2022/07/09 09:03:29;;;;;;;14.25;6.25;;;19.50;99.90;;;;;;5072663;28;20076;-69
2022/07/09 09:06:05;;;;;;;10.43;4.97;;;19.70;99.90;;;;;;5068191;28;20550;-68
2022/07/09 09:08:38;;;;;;;14.02;5.50;;;19.90;99.90;;;;;;5073061;28;20124;-72
2022/07/09 09:11:13;;;;;;;13.27;5.85;;;19.80;99.90;;;;;;5072167;28;20071;-71
2022/07/09 09:13:43;;;;;;;12.38;5.72;;;19.70;99.90;;;;;;5056272;28;20115;-71
2022/07/09 09:16:11;;;;;;;10.88;5.15;;;19.60;99.90;;;;;;5072618;28;20036;-72
2022/07/09 09:18:39;;;;;;;12.50;5.40;;;19.60;99.90;;;;;;5073550;28;20048;-71
2022/07/09 09:21:06;;;;;;;12.02;5.18;;;19.80;99.90;;;;;;5039633;28;20045;-71
2022/07/09 09:23:39;;;;;;;10.23;5.68;;;19.80;99.90;;;;;;5068897;28;20048;-69
2022/07/09 09:26:16;;;;;;;18.00;5.38;;;19.80;99.90;;;;;;5071325;28;20135;-70
2022/07/09 09:29:02;;;;;;;12.95;6.10;;;19.80;99.90;;;;;;5062801;28;20040;-74
2022/07/09 09:31:32;;;;;;;14.00;6.28;;;19.70;99.90;;;;;;5053134;28;20049;-70
2022/07/09 09:34:19;;;;;;;14.13;5.15;;;19.60;99.90;;;;;;5056849;28;20028;-70
2022/07/09 09:36:54;;;;;;;11.60;5.30;;;19.60;99.90;;;;;;5068457;28;20063;-68
2022/07/09 09:39:26;;;;;;;13.95;5.22;;;19.70;99.90;;;;;;5066025;28;20040;-72
2022/07/09 09:41:53;;;;;;;16.70;5.97;;;19.70;99.90;;;;;;5072975;28;20037;-70
2022/07/09 09:44:36;;;;;;;15.10;5.53;;;19.80;99.90;;;;;;5072266;28;20036;-66
2022/07/09 09:47:02;;;;;;;14.32;5.30;;;19.70;99.90;;;;;;5069066;28;20128;-68
2022/07/09 09:49:28;;;;;;;13.27;4.65;;;19.70;99.90;;;;;;5074936;28;20127;-70
2022/07/09 09:52:08;;;;;;;15.10;5.63;;;19.60;99.90;;;;;;5070936;28;20058;-69
2022/07/09 09:54:38;;;;;;;14.23;5.05;;;19.80;99.90;;;;;;5062074;28;20041;-67
2022/07/09 09:57:09;;;;;;;14.70;5.13;;;19.90;99.90;;;;;;5064743;28;20203;-72
2022/07/09 09:59:41;;;;;;;10.75;4.30;;;20.00;99.90;;;;;;5071524;28;20115;-70
2022/07/09 10:02:09;;;;;;;8.60;4.20;;;20.10;99.90;;;;;;5071378;28;20165;-71
2022/07/09 10:04:44;;;;;;;13.02;3.88;;;20.20;99.90;;;;;;5071819;28;20074;-69
2022/07/09 10:07:16;;;;;;;10.05;4.53;;;20.30;99.90;;;;;;5070205;28;20040;-70
2022/07/09 10:09:53;;;;;;;13.52;4.95;;;20.40;99.90;;;;;;5086894;28;20032;-67
2022/07/09 10:12:29;;;;;;;15.82;5.07;;;20.40;99.90;;;;;;5071850;28;20036;-65
2022/07/09 10:14:55;;;;;;;10.63;3.88;;;20.50;99.90;;;;;;5071006;28;20121;-66
2022/07/09 10:17:23;;;;;;;6.60;3.53;;;20.50;99.90;;;;;;5066561;28;20048;-67
2022/07/09 10:20:04;;;;;;;17.27;4.32;;;20.50;99.90;;;;;;5071502;28;20146;-65
2022/07/09 10:22:41;;;;;;;11.05;3.92;;;20.40;99.90;;;;;;5049386;28;20430;-63
2022/07/09 10:25:10;;;;;;;12.38;4.90;;;20.40;99.90;;;;;;5068097;28;20045;-66
2022/07/09 10:27:46;;;;;;;9.32;4.28;;;20.40;99.90;;;;;;5055962;28;20043;-67
2022/07/09 10:30:29;;;;;;;10.57;4.90;;;20.50;99.90;;;;;;5069741;28;20121;-66
2022/07/09 10:33:10;;;;;;;17.05;4.55;;;20.40;99.90;;;;;;5064384;28;20036;-66
2022/07/09 10:35:44;;;;;;;9.82;4.38;;;20.50;99.90;;;;;;5068666;28;20058;-65
2022/07/09 10:38:10;;;;;;;14.55;4.55;;;20.60;99.90;;;;;;5050265;28;20049;-66
2022/07/09 10:40:44;;;;;;;17.45;4.53;;;20.50;99.90;;;;;;5050929;28;20492;-64
2022/07/09 10:43:11;;;;;;;12.13;4.30;;;20.50;99.90;;;;;;5050427;28;20055;-68
2022/07/09 10:45:41;;;;;;;11.05;3.33;;;20.30;99.90;;;;;;5075682;28;20043;-67
2022/07/09 10:48:09;;;;;;;7.47;3.00;;;20.30;99.90;;;;;;5067928;28;20040;-67
2022/07/09 10:50:40;;;;;;;14.68;4.82;;;20.40;99.90;;;;;;5069321;28;20175;-66
2022/07/09 10:53:07;;;;;;;11.50;4.70;;;20.40;99.90;;;;;;5068691;28;20044;-66
2022/07/09 10:55:33;;;;;;;14.77;4.57;;;20.30;99.90;;;;;;5069736;28;20375;-66
2022/07/09 10:57:59;;;;;;;13.15;4.70;;;20.20;99.90;;;;;;5055984;28;20399;-67
2022/07/09 11:00:28;;;;;;;14.45;3.85;;;20.20;99.90;;;;;;5066062;28;20036;-65
2022/07/09 11:03:03;;;;;;;11.73;3.95;;;20.30;99.90;;;;;;5066130;28;20032;-66
2022/07/09 11:05:32;;;;;;;16.17;4.47;;;20.50;99.90;;;;;;5071451;28;20051;-66
2022/07/09 11:08:06;;;;;;;16.58;4.45;;;20.80;99.90;;;;;;5063736;28;20053;-64
2022/07/09 11:10:35;;;;;;;8.48;4.05;;;20.80;99.90;;;;;;5071588;28;20513;-67
2022/07/09 11:13:01;;;;;;;11.95;4.53;;;20.90;99.90;;;;;;5060091;28;20116;-64
2022/07/09 11:15:34;;;;;;;10.43;3.20;;;20.90;99.90;;;;;;5050049;28;20049;-64
2022/07/09 11:18:07;;;;;;;8.10;3.13;;;21.00;99.90;;;;;;5060626;28;20463;-66
2022/07/09 11:20:46;;;;;;;12.73;3.90;;;20.90;99.90;;;;;;5053942;28;20043;-64
2022/07/09 11:23:14;;;;;;;12.27;3.85;;;20.80;99.90;;;;;;5071494;28;20129;-65
2022/07/09 11:25:40;;;;;;;10.18;4.32;;;20.80;99.90;;;;;;5064029;28;20130;-69
2022/07/09 11:28:06;;;;;;;6.05;3.45;;;20.90;99.90;;;;;;5065291;28;20123;-65
2022/07/09 11:30:32;;;;;;;11.93;3.60;;;20.90;99.90;;;;;;5058539;28;20515;-68
2022/07/09 11:32:58;;;;;;;10.90;3.92;;;21.00;99.90;;;;;;5073002;28;20037;-66
2022/07/09 11:35:30;;;;;;;13.30;3.88;;;20.90;99.90;;;;;;5071866;28;20112;-66
2022/07/09 11:37:58;;;;;;;12.40;3.72;;;20.60;99.90;;;;;;5060114;28;20040;-66
2022/07/09 11:40:24;;;;;;;17.70;5.07;;;20.50;99.90;;;;;;5074642;28;20033;-66
2022/07/09 11:42:50;;;;;;;13.55;4.88;;;20.40;99.90;;;;;;5061605;28;20112;-65
2022/07/09 11:45:20;;;;;;;20.08;5.35;;;20.30;99.90;;;;;;5062067;28;20478;-64
2022/07/09 11:47:46;;;;;;;25.50;5.55;;;20.30;99.90;;;;;;5055239;28;20433;-67
2022/07/09 11:50:14;;;;;;;14.75;4.68;;;20.50;99.90;;;;;;5067990;28;20044;-67
2022/07/09 11:52:45;;;;;;;19.73;6.18;;;20.40;99.90;;;;;;5069932;28;20047;-68
2022/07/09 11:55:12;;;;;;;18.40;5.30;;;20.10;99.90;;;;;;5070562;28;20036;-65
2022/07/09 11:57:38;;;;;;;11.55;4.78;;;19.80;99.90;;;;;;5069454;28;20157;-68
2022/07/09 12:00:08;;;;;;;18.38;5.60;;;19.70;99.90;;;;;;5059027;28;20060;-66
2022/07/09 12:02:38;;;;;;;19.73;5.18;;;19.50;99.90;;;;;;5053993;28;20040;-68
2022/07/09 12:05:06;;;;;;;14.13;5.22;;;19.50;99.90;;;;;;5071161;28;20076;-66
2022/07/09 12:07:33;;;;;;;13.77;4.45;;;19.50;99.90;;;;;;5069309;28;20076;-67
2022/07/09 12:10:01;;;;;;;18.77;5.40;;;19.50;99.90;;;;;;5067374;28;20041;-72
2022/07/09 12:12:27;;;;;;;13.65;4.30;;;19.50;99.90;;;;;;5069225;28;20041;-69
2022/07/09 12:14:54;;;;;;;23.40;6.40;;;19.60;99.90;;;;;;5069822;28;20043;-66
2022/07/09 12:17:23;;;;;;;13.25;4.30;;;19.80;99.90;;;;;;5055928;28;20037;-68
2022/07/09 12:19:49;;;;;;;16.98;4.30;;;19.80;99.90;;;;;;5079649;28;20446;-65
2022/07/09 12:22:14;;;;;;;22.17;5.82;;;19.80;99.90;;;;;;5064083;28;20036;-66
2022/07/09 12:24:40;;;;;;;21.10;5.47;;;19.90;99.90;;;;;;5049586;28;20059;-68
2022/07/09 12:27:05;;;;;;;19.50;6.05;;;20.10;99.90;;;;;;5050820;28;20037;-67
2022/07/09 12:29:31;;;;;;;13.55;5.05;;;20.10;99.90;;;;;;5066380;28;20041;-67
2022/07/09 12:31:56;;;;;;;16.95;5.03;;;20.20;99.90;;;;;;5062783;28;20045;-66
2022/07/09 12:34:23;;;;;;;10.52;3.90;;;20.30;99.90;;;;;;5067888;28;20391;-65
2022/07/09 12:36:49;;;;;;;11.35;4.32;;;20.40;99.90;;;;;;5073118;28;20155;-66
2022/07/09 12:39:14;;;;;;;22.33;5.13;;;20.40;99.90;;;;;;5065697;28;20072;-70
2022/07/09 12:41:40;;;;;;;13.35;3.90;;;20.40;99.90;;;;;;5053261;28;20178;-68
2022/07/09 12:44:05;;;;;;;13.85;3.95;;;20.50;99.90;;;;;;5051851;28;20036;-68